sensor_id;sensor_type;location;lat;lon;timestamp;temperature;humidity
837;DHT22;400;53.550;9.932;2023-02-28T00:01:10;6.60;99.90
837;DHT22;400;53.550;9.932;2023-02-28T00:03:38;6.60;99.90
837;DHT22;400;53.550;9.932;2023-02-28T00:06:06;6.50;99.90
837;DHT22;400;53.550;9.932;2023-02-28T00:08:34;6.50;99.90
837;DHT22;400;53.550;9.932;2023-02-28T00:11:02;6.50;99.90
837;DHT22;400;53.550;9.932;2023-02-28T00:13:31;6.50;99.90
837;DHT22;400;53.550;9.932;2023-02-28T00:15:59;6.50;99.90
837;DHT22;400;53.550;9.932;2023-02-28T00:18:26;6.50;99.90
837;DHT22;400;53.550;9.932;2023-02-28T00:20:53;6.50;99.90
837;DHT22;400;53.550;9.932;2023-02-28T00:23:20;6.40;99.90
837;DHT22;400;53.550;9.932;2023-02-28T00:25:47;6.40;99.90
837;DHT22;400;53.550;9.932;2023-02-28T00:28:14;6.40;99.90
837;DHT22;400;53.550;9.932;2023-02-28T00:30:43;6.40;99.90
837;DHT22;400;53.550;9.932;2023-02-28T00:33:10;6.40;99.90
837;DHT22;400;53.550;9.932;2023-02-28T00:35:37;6.40;99.90
837;DHT22;400;53.550;9.932;2023-02-28T00:38:04;6.40;99.90
837;DHT22;400;53.550;9.932;2023-02-28T00:40:31;6.40;99.90
837;DHT22;400;53.550;9.932;2023-02-28T00:42:58;6.40;99.90
837;DHT22;400;53.550;9.932;2023-02-28T00:45:25;6.40;99.90
837;DHT22;400;53.550;9.932;2023-02-28T00:47:53;6.30;99.90
837;DHT22;400;53.550;9.932;2023-02-28T00:50:20;6.30;99.90
837;DHT22;400;53.550;9.932;2023-02-28T00:52:47;6.30;99.90
837;DHT22;400;53.550;9.932;2023-02-28T00:55:15;6.30;99.90
837;DHT22;400;53.550;9.932;2023-02-28T00:57:42;6.30;99.90
837;DHT22;400;53.550;9.932;2023-02-28T01:00:10;6.30;99.90
837;DHT22;400;53.550;9.932;2023-02-28T01:02:37;6.30;99.90
837;DHT22;400;53.550;9.932;2023-02-28T01:05:10;6.30;99.90
837;DHT22;400;53.550;9.932;2023-02-28T01:07:36;6.30;99.90
837;DHT22;400;53.550;9.932;2023-02-28T01:10:04;6.30;99.90
837;DHT22;400;53.550;9.932;2023-02-28T01:12:31;6.30;99.90
837;DHT22;400;53.550;9.932;2023-02-28T01:14:58;6.20;99.90
837;DHT22;400;53.550;9.932;2023-02-28T01:17:25;6.20;99.90
837;DHT22;400;53.550;9.932;2023-02-28T01:19:53;6.20;99.90
837;DHT22;400;53.550;9.932;2023-02-28T01:22:23;6.20;99.90
837;DHT22;400;53.550;9.932;2023-02-28T01:24:50;6.10;99.90
837;DHT22;400;53.550;9.932;2023-02-28T01:27:17;6.10;99.90
837;DHT22;400;53.550;9.932;2023-02-28T01:29:44;6.10;99.90
837;DHT22;400;53.550;9.932;2023-02-28T01:32:10;6.10;99.90
837;DHT22;400;53.550;9.932;2023-02-28T01:34:37;6.10;99.90
837;DHT22;400;53.550;9.932;2023-02-28T01:37:04;6.10;99.90
837;DHT22;400;53.550;9.932;2023-02-28T01:39:33;6.10;99.90
837;DHT22;400;53.550;9.932;2023-02-28T01:42:00;6.10;99.90
837;DHT22;400;53.550;9.932;2023-02-28T01:44:57;6.10;99.90
837;DHT22;400;53.550;9.932;2023-02-28T01:47:27;6.10;99.90
837;DHT22;400;53.550;9.932;2023-02-28T01:49:54;6.10;99.90
837;DHT22;400;53.550;9.932;2023-02-28T01:52:22;6.20;99.90
837;DHT22;400;53.550;9.932;2023-02-28T01:54:55;6.10;99.90
837;DHT22;400;53.550;9.932;2023-02-28T01:57:25;6.10;99.90
837;DHT22;400;53.550;9.932;2023-02-28T01:59:56;6.10;99.90
837;DHT22;400;53.550;9.932;2023-02-28T02:02:26;6.00;99.90
837;DHT22;400;53.550;9.932;2023-02-28T02:04:57;6.00;99.90
837;DHT22;400;53.550;9.932;2023-02-28T02:07:30;6.00;99.90
837;DHT22;400;53.550;9.932;2023-02-28T02:10:06;6.00;99.90
837;DHT22;400;53.550;9.932;2023-02-28T02:12:48;6.00;99.90
837;DHT22;400;53.550;9.932;2023-02-28T02:15:23;5.90;99.90
837;DHT22;400;53.550;9.932;2023-02-28T02:17:55;6.00;99.90
837;DHT22;400;53.550;9.932;2023-02-28T02:21:00;6.00;99.90
837;DHT22;400;53.550;9.932;2023-02-28T02:26:47;6.00;99.90
837;DHT22;400;53.550;9.932;2023-02-28T02:32:48;5.90;99.90
837;DHT22;400;53.550;9.932;2023-02-28T02:35:25;5.90;99.90
837;DHT22;400;53.550;9.932;2023-02-28T02:37:57;5.90;99.90
837;DHT22;400;53.550;9.932;2023-02-28T02:40:29;5.80;99.90
837;DHT22;400;53.550;9.932;2023-02-28T02:43:01;5.80;99.90
837;DHT22;400;53.550;9.932;2023-02-28T02:45:34;5.80;99.90
837;DHT22;400;53.550;9.932;2023-02-28T02:48:04;5.70;99.90
837;DHT22;400;53.550;9.932;2023-02-28T02:50:36;5.60;99.90
837;DHT22;400;53.550;9.932;2023-02-28T02:53:05;5.60;99.90
837;DHT22;400;53.550;9.932;2023-02-28T02:55:36;5.60;99.90
837;DHT22;400;53.550;9.932;2023-02-28T02:58:09;5.60;99.90
837;DHT22;400;53.550;9.932;2023-02-28T03:00:39;5.50;99.90
837;DHT22;400;53.550;9.932;2023-02-28T03:03:08;5.50;99.90
837;DHT22;400;53.550;9.932;2023-02-28T03:05:42;5.40;99.90
837;DHT22;400;53.550;9.932;2023-02-28T03:08:12;5.40;99.90
837;DHT22;400;53.550;9.932;2023-02-28T03:10:41;5.40;99.90
837;DHT22;400;53.550;9.932;2023-02-28T03:13:33;5.30;99.90
837;DHT22;400;53.550;9.932;2023-02-28T03:18:57;5.20;99.90
837;DHT22;400;53.550;9.932;2023-02-28T03:21:35;5.20;99.90
837;DHT22;400;53.550;9.932;2023-02-28T03:24:05;5.20;99.90
837;DHT22;400;53.550;9.932;2023-02-28T03:26:38;5.20;99.90
837;DHT22;400;53.550;9.932;2023-02-28T03:29:13;5.20;99.90
837;DHT22;400;53.550;9.932;2023-02-28T03:31:46;5.20;99.90
837;DHT22;400;53.550;9.932;2023-02-28T03:34:19;5.20;99.90
837;DHT22;400;53.550;9.932;2023-02-28T03:36:52;5.10;99.90
837;DHT22;400;53.550;9.932;2023-02-28T03:39:22;5.10;99.90
837;DHT22;400;53.550;9.932;2023-02-28T03:41:52;5.00;99.90
837;DHT22;400;53.550;9.932;2023-02-28T03:44:24;5.00;99.90
837;DHT22;400;53.550;9.932;2023-02-28T03:46:56;5.00;99.90
837;DHT22;400;53.550;9.932;2023-02-28T03:49:28;5.00;99.90
837;DHT22;400;53.550;9.932;2023-02-28T03:52:00;4.90;99.90
837;DHT22;400;53.550;9.932;2023-02-28T03:54:31;4.90;99.90
837;DHT22;400;53.550;9.932;2023-02-28T03:57:02;4.80;99.90
837;DHT22;400;53.550;9.932;2023-02-28T03:59:34;4.80;99.90
837;DHT22;400;53.550;9.932;2023-02-28T04:02:03;4.80;99.90
837;DHT22;400;53.550;9.932;2023-02-28T04:04:30;4.70;99.90
837;DHT22;400;53.550;9.932;2023-02-28T04:07:06;4.70;99.90
837;DHT22;400;53.550;9.932;2023-02-28T04:09:39;4.70;99.90
837;DHT22;400;53.550;9.932;2023-02-28T04:12:08;4.70;99.90
837;DHT22;400;53.550;9.932;2023-02-28T04:14:36;4.70;99.90
837;DHT22;400;53.550;9.932;2023-02-28T04:17:03;4.60;99.90
837;DHT22;400;53.550;9.932;2023-02-28T04:19:30;4.50;99.90
837;DHT22;400;53.550;9.932;2023-02-28T04:21:56;4.50;99.90
837;DHT22;400;53.550;9.932;2023-02-28T04:24:26;4.50;99.90
837;DHT22;400;53.550;9.932;2023-02-28T04:26:55;4.50;99.90
837;DHT22;400;53.550;9.932;2023-02-28T04:29:24;4.50;99.90
837;DHT22;400;53.550;9.932;2023-02-28T04:31:51;4.50;99.90
837;DHT22;400;53.550;9.932;2023-02-28T04:34:19;4.40;99.90
837;DHT22;400;53.550;9.932;2023-02-28T04:36:47;4.40;99.90
837;DHT22;400;53.550;9.932;2023-02-28T04:39:14;4.40;99.90
837;DHT22;400;53.550;9.932;2023-02-28T04:41:45;4.40;99.90
837;DHT22;400;53.550;9.932;2023-02-28T04:44:13;4.40;99.90
837;DHT22;400;53.550;9.932;2023-02-28T04:46:40;4.40;99.90
837;DHT22;400;53.550;9.932;2023-02-28T04:49:08;4.40;99.90
837;DHT22;400;53.550;9.932;2023-02-28T04:51:36;4.30;99.90
837;DHT22;400;53.550;9.932;2023-02-28T04:54:05;4.30;99.90
837;DHT22;400;53.550;9.932;2023-02-28T04:56:37;4.30;99.90
837;DHT22;400;53.550;9.932;2023-02-28T04:59:12;4.20;99.90
837;DHT22;400;53.550;9.932;2023-02-28T05:01:48;4.20;99.90
837;DHT22;400;53.550;9.932;2023-02-28T05:04:16;4.10;99.90
837;DHT22;400;53.550;9.932;2023-02-28T05:06:43;4.10;99.90
837;DHT22;400;53.550;9.932;2023-02-28T05:09:10;3.90;99.90
837;DHT22;400;53.550;9.932;2023-02-28T05:11:38;3.90;99.90
837;DHT22;400;53.550;9.932;2023-02-28T05:14:09;4.00;99.90
837;DHT22;400;53.550;9.932;2023-02-28T05:16:37;4.00;99.90
837;DHT22;400;53.550;9.932;2023-02-28T05:19:03;4.00;99.90
837;DHT22;400;53.550;9.932;2023-02-28T05:21:33;4.00;99.90
837;DHT22;400;53.550;9.932;2023-02-28T05:24:05;4.00;99.90
837;DHT22;400;53.550;9.932;2023-02-28T05:26:34;4.00;99.90
837;DHT22;400;53.550;9.932;2023-02-28T05:29:01;3.90;99.90
837;DHT22;400;53.550;9.932;2023-02-28T05:31:30;4.00;99.90
837;DHT22;400;53.550;9.932;2023-02-28T05:33:57;3.90;99.90
837;DHT22;400;53.550;9.932;2023-02-28T05:36:24;4.00;99.90
837;DHT22;400;53.550;9.932;2023-02-28T05:38:51;4.00;99.90
837;DHT22;400;53.550;9.932;2023-02-28T05:41:19;4.00;99.90
837;DHT22;400;53.550;9.932;2023-02-28T05:43:46;3.90;99.90
837;DHT22;400;53.550;9.932;2023-02-28T05:46:13;3.90;99.90
837;DHT22;400;53.550;9.932;2023-02-28T05:48:47;3.90;99.90
837;DHT22;400;53.550;9.932;2023-02-28T05:51:17;3.90;99.90
837;DHT22;400;53.550;9.932;2023-02-28T05:53:46;3.80;99.90
837;DHT22;400;53.550;9.932;2023-02-28T05:56:13;3.80;99.90
837;DHT22;400;53.550;9.932;2023-02-28T05:58:40;3.80;99.90
837;DHT22;400;53.550;9.932;2023-02-28T06:01:22;3.70;99.90
837;DHT22;400;53.550;9.932;2023-02-28T06:03:51;3.70;99.90
837;DHT22;400;53.550;9.932;2023-02-28T06:06:18;3.70;99.90
837;DHT22;400;53.550;9.932;2023-02-28T06:08:45;3.70;99.90
837;DHT22;400;53.550;9.932;2023-02-28T06:11:12;3.70;99.90
837;DHT22;400;53.550;9.932;2023-02-28T06:13:39;3.70;99.90
837;DHT22;400;53.550;9.932;2023-02-28T06:16:07;3.70;99.90
837;DHT22;400;53.550;9.932;2023-02-28T06:18:34;3.70;99.90
837;DHT22;400;53.550;9.932;2023-02-28T06:21:02;3.70;99.90
837;DHT22;400;53.550;9.932;2023-02-28T06:23:31;3.70;99.90
837;DHT22;400;53.550;9.932;2023-02-28T06:25:58;3.70;99.90
837;DHT22;400;53.550;9.932;2023-02-28T06:28:27;3.70;99.90
837;DHT22;400;53.550;9.932;2023-02-28T06:30:55;3.70;99.90
837;DHT22;400;53.550;9.932;2023-02-28T06:33:21;3.70;99.90
837;DHT22;400;53.550;9.932;2023-02-28T06:35:51;3.70;99.90
837;DHT22;400;53.550;9.932;2023-02-28T06:38:25;3.70;99.90
837;DHT22;400;53.550;9.932;2023-02-28T06:40:57;3.70;99.90
837;DHT22;400;53.550;9.932;2023-02-28T06:43:29;3.70;99.90
837;DHT22;400;53.550;9.932;2023-02-28T06:46:01;3.70;99.90
837;DHT22;400;53.550;9.932;2023-02-28T06:48:34;3.70;99.90
837;DHT22;400;53.550;9.932;2023-02-28T06:51:08;3.70;99.90
837;DHT22;400;53.550;9.932;2023-02-28T06:53:38;3.70;99.90
837;DHT22;400;53.550;9.932;2023-02-28T06:56:09;3.70;99.90
837;DHT22;400;53.550;9.932;2023-02-28T06:58:39;3.70;99.90
837;DHT22;400;53.550;9.932;2023-02-28T07:01:07;3.70;99.90
837;DHT22;400;53.550;9.932;2023-02-28T07:03:35;3.70;99.90
837;DHT22;400;53.550;9.932;2023-02-28T07:06:04;3.70;99.90
837;DHT22;400;53.550;9.932;2023-02-28T07:08:34;3.70;99.90
837;DHT22;400;53.550;9.932;2023-02-28T07:11:07;3.70;99.90
837;DHT22;400;53.550;9.932;2023-02-28T07:13:33;3.70;99.90
837;DHT22;400;53.550;9.932;2023-02-28T07:16:03;3.80;99.90
837;DHT22;400;53.550;9.932;2023-02-28T07:18:30;3.80;99.90
837;DHT22;400;53.550;9.932;2023-02-28T07:20:57;3.80;99.90
837;DHT22;400;53.550;9.932;2023-02-28T07:23:25;3.80;99.90
837;DHT22;400;53.550;9.932;2023-02-28T07:25:53;3.80;99.90
837;DHT22;400;53.550;9.932;2023-02-28T07:28:28;3.80;99.90
837;DHT22;400;53.550;9.932;2023-02-28T07:31:03;3.90;99.90
837;DHT22;400;53.550;9.932;2023-02-28T07:33:30;3.90;99.90
837;DHT22;400;53.550;9.932;2023-02-28T07:36:01;3.90;99.90
837;DHT22;400;53.550;9.932;2023-02-28T07:38:33;4.00;99.90
837;DHT22;400;53.550;9.932;2023-02-28T07:41:04;4.00;99.90
837;DHT22;400;53.550;9.932;2023-02-28T07:43:40;4.00;99.90
837;DHT22;400;53.550;9.932;2023-02-28T07:46:09;4.10;99.90
837;DHT22;400;53.550;9.932;2023-02-28T07:48:38;4.10;99.90
837;DHT22;400;53.550;9.932;2023-02-28T07:51:11;4.20;99.90
837;DHT22;400;53.550;9.932;2023-02-28T07:53:41;4.20;99.90
837;DHT22;400;53.550;9.932;2023-02-28T07:56:12;4.20;99.90
837;DHT22;400;53.550;9.932;2023-02-28T07:58:43;4.30;99.90
837;DHT22;400;53.550;9.932;2023-02-28T08:01:11;4.30;99.90
837;DHT22;400;53.550;9.932;2023-02-28T08:03:41;4.30;99.90
837;DHT22;400;53.550;9.932;2023-02-28T08:06:17;4.30;99.90
837;DHT22;400;53.550;9.932;2023-02-28T08:08:45;4.40;99.90
837;DHT22;400;53.550;9.932;2023-02-28T08:11:12;4.40;99.90
837;DHT22;400;53.550;9.932;2023-02-28T08:13:39;4.40;99.90
837;DHT22;400;53.550;9.932;2023-02-28T08:16:12;4.50;99.90
837;DHT22;400;53.550;9.932;2023-02-28T08:18:42;4.60;99.90
837;DHT22;400;53.550;9.932;2023-02-28T08:21:10;4.60;99.90
837;DHT22;400;53.550;9.932;2023-02-28T08:23:37;4.60;99.90
837;DHT22;400;53.550;9.932;2023-02-28T08:26:04;4.60;99.90
837;DHT22;400;53.550;9.932;2023-02-28T08:28:32;4.70;99.90
837;DHT22;400;53.550;9.932;2023-02-28T08:30:59;4.70;99.90
837;DHT22;400;53.550;9.932;2023-02-28T08:33:28;4.80;99.90
837;DHT22;400;53.550;9.932;2023-02-28T08:35:55;4.80;99.90
837;DHT22;400;53.550;9.932;2023-02-28T08:38:23;4.90;99.90
837;DHT22;400;53.550;9.932;2023-02-28T08:40:53;4.80;99.90
837;DHT22;400;53.550;9.932;2023-02-28T08:43:27;4.80;99.90
837;DHT22;400;53.550;9.932;2023-02-28T08:45:59;4.80;99.90
837;DHT22;400;53.550;9.932;2023-02-28T08:48:29;4.90;99.90
837;DHT22;400;53.550;9.932;2023-02-28T08:50:58;4.90;99.90
837;DHT22;400;53.550;9.932;2023-02-28T08:53:26;5.00;99.90
837;DHT22;400;53.550;9.932;2023-02-28T08:55:58;5.00;99.90
837;DHT22;400;53.550;9.932;2023-02-28T08:58:25;4.90;99.90
837;DHT22;400;53.550;9.932;2023-02-28T09:00:52;5.00;99.90
837;DHT22;400;53.550;9.932;2023-02-28T09:03:19;5.10;99.90
837;DHT22;400;53.550;9.932;2023-02-28T09:05:57;5.20;99.90
837;DHT22;400;53.550;9.932;2023-02-28T09:08:28;5.30;99.90
837;DHT22;400;53.550;9.932;2023-02-28T09:10:59;5.30;99.90
837;DHT22;400;53.550;9.932;2023-02-28T09:13:30;5.40;99.90
837;DHT22;400;53.550;9.932;2023-02-28T09:15:58;5.40;99.90
837;DHT22;400;53.550;9.932;2023-02-28T09:18:26;5.50;99.90
837;DHT22;400;53.550;9.932;2023-02-28T09:20:52;5.50;99.90
837;DHT22;400;53.550;9.932;2023-02-28T09:23:21;5.60;99.90
837;DHT22;400;53.550;9.932;2023-02-28T09:25:50;5.60;99.90
837;DHT22;400;53.550;9.932;2023-02-28T09:28:22;5.70;99.90
837;DHT22;400;53.550;9.932;2023-02-28T09:30:50;5.80;99.90
837;DHT22;400;53.550;9.932;2023-02-28T09:33:19;5.70;99.90
837;DHT22;400;53.550;9.932;2023-02-28T09:35:50;5.70;99.90
837;DHT22;400;53.550;9.932;2023-02-28T09:38:22;5.80;99.90
837;DHT22;400;53.550;9.932;2023-02-28T09:40:51;5.90;99.90
837;DHT22;400;53.550;9.932;2023-02-28T09:43:21;6.10;99.90
837;DHT22;400;53.550;9.932;2023-02-28T09:45:52;6.20;99.90
837;DHT22;400;53.550;9.932;2023-02-28T09:48:27;6.30;99.90
837;DHT22;400;53.550;9.932;2023-02-28T09:51:02;6.20;99.90
837;DHT22;400;53.550;9.932;2023-02-28T09:53:32;6.20;99.90
837;DHT22;400;53.550;9.932;2023-02-28T09:56:04;6.00;99.70
837;DHT22;400;53.550;9.932;2023-02-28T09:58:37;6.10;99.70
837;DHT22;400;53.550;9.932;2023-02-28T10:01:12;6.20;99.50
837;DHT22;400;53.550;9.932;2023-02-28T10:03:47;6.20;99.60
837;DHT22;400;53.550;9.932;2023-02-28T10:06:19;6.30;99.90
837;DHT22;400;53.550;9.932;2023-02-28T10:08:54;6.40;99.90
837;DHT22;400;53.550;9.932;2023-02-28T10:11:23;6.50;99.10
837;DHT22;400;53.550;9.932;2023-02-28T10:13:54;6.60;98.90
837;DHT22;400;53.550;9.932;2023-02-28T10:16:30;6.70;99.70
837;DHT22;400;53.550;9.932;2023-02-28T10:19:03;6.80;99.40
837;DHT22;400;53.550;9.932;2023-02-28T10:21:35;6.80;98.70
837;DHT22;400;53.550;9.932;2023-02-28T10:24:18;6.80;99.30
837;DHT22;400;53.550;9.932;2023-02-28T10:26:52;6.90;99.40
837;DHT22;400;53.550;9.932;2023-02-28T10:29:24;6.90;99.40
837;DHT22;400;53.550;9.932;2023-02-28T10:31:52;7.00;99.70
837;DHT22;400;53.550;9.932;2023-02-28T10:34:26;7.10;99.80
837;DHT22;400;53.550;9.932;2023-02-28T10:36:55;7.20;99.90
837;DHT22;400;53.550;9.932;2023-02-28T10:39:40;7.30;99.90
837;DHT22;400;53.550;9.932;2023-02-28T10:42:21;7.30;99.90
837;DHT22;400;53.550;9.932;2023-02-28T10:45:10;7.30;99.90
837;DHT22;400;53.550;9.932;2023-02-28T10:47:51;7.20;99.90
837;DHT22;400;53.550;9.932;2023-02-28T10:50:55;7.30;99.90
837;DHT22;400;53.550;9.932;2023-02-28T10:53:31;7.40;99.90
837;DHT22;400;53.550;9.932;2023-02-28T10:56:02;7.40;99.90
837;DHT22;400;53.550;9.932;2023-02-28T10:58:31;7.40;99.90
837;DHT22;400;53.550;9.932;2023-02-28T11:00:59;7.40;99.50
837;DHT22;400;53.550;9.932;2023-02-28T11:03:31;7.50;99.60
837;DHT22;400;53.550;9.932;2023-02-28T11:06:06;7.60;99.80
837;DHT22;400;53.550;9.932;2023-02-28T11:08:46;7.50;98.50
837;DHT22;400;53.550;9.932;2023-02-28T11:11:20;7.50;99.00
837;DHT22;400;53.550;9.932;2023-02-28T11:13:52;7.60;98.70
837;DHT22;400;53.550;9.932;2023-02-28T11:16:20;7.70;98.50
837;DHT22;400;53.550;9.932;2023-02-28T11:18:50;7.70;98.60
837;DHT22;400;53.550;9.932;2023-02-28T11:21:22;7.70;98.50
837;DHT22;400;53.550;9.932;2023-02-28T11:23:55;7.80;98.40
837;DHT22;400;53.550;9.932;2023-02-28T11:26:41;7.60;98.30
837;DHT22;400;53.550;9.932;2023-02-28T11:29:12;7.80;98.80
837;DHT22;400;53.550;9.932;2023-02-28T11:31:42;7.90;98.30
837;DHT22;400;53.550;9.932;2023-02-28T11:34:25;7.80;97.70
837;DHT22;400;53.550;9.932;2023-02-28T11:36:54;7.90;98.00
837;DHT22;400;53.550;9.932;2023-02-28T11:39:23;8.00;97.30
837;DHT22;400;53.550;9.932;2023-02-28T11:42:07;8.00;97.30
837;DHT22;400;53.550;9.932;2023-02-28T11:44:48;8.10;96.80
837;DHT22;400;53.550;9.932;2023-02-28T11:47:26;8.20;96.70
837;DHT22;400;53.550;9.932;2023-02-28T11:50:08;8.20;96.40
837;DHT22;400;53.550;9.932;2023-02-28T11:52:40;8.20;96.50
837;DHT22;400;53.550;9.932;2023-02-28T11:55:16;8.10;96.50
837;DHT22;400;53.550;9.932;2023-02-28T12:01:01;8.30;96.30
837;DHT22;400;53.550;9.932;2023-02-28T12:03:45;8.30;96.10
837;DHT22;400;53.550;9.932;2023-02-28T12:06:21;8.40;96.20
837;DHT22;400;53.550;9.932;2023-02-28T12:09:04;8.50;95.90
837;DHT22;400;53.550;9.932;2023-02-28T12:11:45;8.60;95.90
837;DHT22;400;53.550;9.932;2023-02-28T12:14:50;8.60;95.90
837;DHT22;400;53.550;9.932;2023-02-28T12:17:30;8.50;95.30
837;DHT22;400;53.550;9.932;2023-02-28T12:20:10;8.50;95.30
837;DHT22;400;53.550;9.932;2023-02-28T12:22:52;8.50;95.70
837;DHT22;400;53.550;9.932;2023-02-28T12:28:27;8.70;94.90
837;DHT22;400;53.550;9.932;2023-02-28T12:31:03;8.70;94.80
837;DHT22;400;53.550;9.932;2023-02-28T12:33:39;8.70;94.50
837;DHT22;400;53.550;9.932;2023-02-28T12:36:11;8.80;94.70
837;DHT22;400;53.550;9.932;2023-02-28T12:38:47;8.80;94.60
837;DHT22;400;53.550;9.932;2023-02-28T12:41:17;8.80;94.40
837;DHT22;400;53.550;9.932;2023-02-28T12:43:55;8.90;94.50
837;DHT22;400;53.550;9.932;2023-02-28T12:46:30;9.00;94.60
837;DHT22;400;53.550;9.932;2023-02-28T12:49:05;8.80;94.10
837;DHT22;400;53.550;9.932;2023-02-28T12:51:34;8.90;94.70
837;DHT22;400;53.550;9.932;2023-02-28T12:54:07;8.90;94.40
837;DHT22;400;53.550;9.932;2023-02-28T12:56:47;9.00;94.10
837;DHT22;400;53.550;9.932;2023-02-28T12:59:23;9.10;93.80
837;DHT22;400;53.550;9.932;2023-02-28T13:05:21;9.00;93.50
837;DHT22;400;53.550;9.932;2023-02-28T13:11:07;9.00;93.50
837;DHT22;400;53.550;9.932;2023-02-28T13:13:58;9.00;93.50
837;DHT22;400;53.550;9.932;2023-02-28T13:16:55;9.00;93.60
837;DHT22;400;53.550;9.932;2023-02-28T13:19:30;8.80;93.50
837;DHT22;400;53.550;9.932;2023-02-28T13:22:10;8.90;93.60
837;DHT22;400;53.550;9.932;2023-02-28T13:24:49;8.90;93.50
837;DHT22;400;53.550;9.932;2023-02-28T13:27:37;8.90;93.70
837;DHT22;400;53.550;9.932;2023-02-28T13:33:26;8.90;93.90
837;DHT22;400;53.550;9.932;2023-02-28T13:36:25;8.90;93.70
837;DHT22;400;53.550;9.932;2023-02-28T13:39:00;8.90;93.50
837;DHT22;400;53.550;9.932;2023-02-28T13:41:47;8.90;93.90
837;DHT22;400;53.550;9.932;2023-02-28T13:44:19;8.80;93.10
837;DHT22;400;53.550;9.932;2023-02-28T13:50:33;8.90;93.60
837;DHT22;400;53.550;9.932;2023-02-28T13:53:42;8.90;94.10
837;DHT22;400;53.550;9.932;2023-02-28T13:56:32;8.90;93.30
837;DHT22;400;53.550;9.932;2023-02-28T13:59:17;8.90;93.20
837;DHT22;400;53.550;9.932;2023-02-28T14:02:11;8.90;93.20
837;DHT22;400;53.550;9.932;2023-02-28T14:05:00;8.90;92.90
837;DHT22;400;53.550;9.932;2023-02-28T14:07:36;8.90;93.20
837;DHT22;400;53.550;9.932;2023-02-28T14:10:25;8.80;93.00
837;DHT22;400;53.550;9.932;2023-02-28T14:13:14;8.70;93.00
837;DHT22;400;53.550;9.932;2023-02-28T14:16:08;8.90;92.90
837;DHT22;400;53.550;9.932;2023-02-28T14:18:41;8.90;93.00
837;DHT22;400;53.550;9.932;2023-02-28T14:21:14;9.00;92.70
837;DHT22;400;53.550;9.932;2023-02-28T14:24:07;9.00;92.60
837;DHT22;400;53.550;9.932;2023-02-28T14:26:58;9.00;92.60
837;DHT22;400;53.550;9.932;2023-02-28T14:29:46;9.00;92.40
837;DHT22;400;53.550;9.932;2023-02-28T14:32:26;9.00;92.40
837;DHT22;400;53.550;9.932;2023-02-28T14:34:58;8.90;92.40
837;DHT22;400;53.550;9.932;2023-02-28T14:37:30;9.00;92.60
837;DHT22;400;53.550;9.932;2023-02-28T14:40:00;9.00;92.50
837;DHT22;400;53.550;9.932;2023-02-28T14:42:33;9.00;92.50
837;DHT22;400;53.550;9.932;2023-02-28T14:45:01;9.00;92.40
837;DHT22;400;53.550;9.932;2023-02-28T14:47:31;9.00;92.50
837;DHT22;400;53.550;9.932;2023-02-28T14:50:00;9.00;92.60
837;DHT22;400;53.550;9.932;2023-02-28T14:52:31;8.90;92.90
837;DHT22;400;53.550;9.932;2023-02-28T14:55:03;9.00;92.70
837;DHT22;400;53.550;9.932;2023-02-28T14:57:52;9.00;92.60
837;DHT22;400;53.550;9.932;2023-02-28T15:00:24;8.80;92.50
837;DHT22;400;53.550;9.932;2023-02-28T15:02:55;8.90;92.50
837;DHT22;400;53.550;9.932;2023-02-28T15:05:29;8.90;92.60
837;DHT22;400;53.550;9.932;2023-02-28T15:08:10;8.90;92.50
837;DHT22;400;53.550;9.932;2023-02-28T15:10:44;8.90;92.40
837;DHT22;400;53.550;9.932;2023-02-28T15:13:18;8.90;92.20
837;DHT22;400;53.550;9.932;2023-02-28T15:15:48;8.90;92.50
837;DHT22;400;53.550;9.932;2023-02-28T15:18:27;8.90;92.70
837;DHT22;400;53.550;9.932;2023-02-28T15:20:59;8.90;93.00
837;DHT22;400;53.550;9.932;2023-02-28T15:23:32;8.90;94.20
837;DHT22;400;53.550;9.932;2023-02-28T15:26:06;8.80;93.50
837;DHT22;400;53.550;9.932;2023-02-28T15:28:35;8.80;93.60
837;DHT22;400;53.550;9.932;2023-02-28T15:31:04;8.80;93.60
837;DHT22;400;53.550;9.932;2023-02-28T15:33:52;8.80;93.70
837;DHT22;400;53.550;9.932;2023-02-28T15:36:23;8.80;93.50
837;DHT22;400;53.550;9.932;2023-02-28T15:38:53;8.80;93.60
837;DHT22;400;53.550;9.932;2023-02-28T15:41:28;8.70;93.60
837;DHT22;400;53.550;9.932;2023-02-28T15:44:17;8.70;93.80
837;DHT22;400;53.550;9.932;2023-02-28T15:46:58;8.60;93.80
837;DHT22;400;53.550;9.932;2023-02-28T15:49:32;8.60;93.70
837;DHT22;400;53.550;9.932;2023-02-28T15:52:10;8.60;93.70
837;DHT22;400;53.550;9.932;2023-02-28T15:54:39;8.60;93.80
837;DHT22;400;53.550;9.932;2023-02-28T15:57:10;8.60;93.80
837;DHT22;400;53.550;9.932;2023-02-28T15:59:48;8.50;93.90
837;DHT22;400;53.550;9.932;2023-02-28T16:02:18;8.50;94.10
837;DHT22;400;53.550;9.932;2023-02-28T16:04:57;8.50;94.00
837;DHT22;400;53.550;9.932;2023-02-28T16:07:29;8.50;94.10
837;DHT22;400;53.550;9.932;2023-02-28T16:09:57;8.40;94.00
837;DHT22;400;53.550;9.932;2023-02-28T16:12:28;8.40;94.10
837;DHT22;400;53.550;9.932;2023-02-28T16:15:01;8.30;94.80
837;DHT22;400;53.550;9.932;2023-02-28T16:17:30;8.30;94.50
837;DHT22;400;53.550;9.932;2023-02-28T16:19:59;8.30;94.50
837;DHT22;400;53.550;9.932;2023-02-28T16:22:27;8.20;94.60
837;DHT22;400;53.550;9.932;2023-02-28T16:24:59;8.20;94.60
837;DHT22;400;53.550;9.932;2023-02-28T16:27:32;8.20;94.50
837;DHT22;400;53.550;9.932;2023-02-28T16:30:20;8.10;94.50
837;DHT22;400;53.550;9.932;2023-02-28T16:32:51;8.10;94.60
837;DHT22;400;53.550;9.932;2023-02-28T16:35:20;8.00;94.60
837;DHT22;400;53.550;9.932;2023-02-28T16:37:52;8.00;94.60
837;DHT22;400;53.550;9.932;2023-02-28T16:40:24;8.00;94.60
837;DHT22;400;53.550;9.932;2023-02-28T16:42:58;8.00;94.70
837;DHT22;400;53.550;9.932;2023-02-28T16:45:28;7.90;94.80
837;DHT22;400;53.550;9.932;2023-02-28T16:47:55;7.90;94.80
837;DHT22;400;53.550;9.932;2023-02-28T16:50:24;7.80;94.90
837;DHT22;400;53.550;9.932;2023-02-28T16:52:51;7.80;95.00
837;DHT22;400;53.550;9.932;2023-02-28T16:55:22;7.70;95.00
837;DHT22;400;53.550;9.932;2023-02-28T16:57:54;7.70;95.20
837;DHT22;400;53.550;9.932;2023-02-28T17:00:32;7.70;95.20
837;DHT22;400;53.550;9.932;2023-02-28T17:03:07;7.60;95.40
837;DHT22;400;53.550;9.932;2023-02-28T17:05:38;7.60;95.60
837;DHT22;400;53.550;9.932;2023-02-28T17:08:10;7.60;95.80
837;DHT22;400;53.550;9.932;2023-02-28T17:10:41;7.50;95.80
837;DHT22;400;53.550;9.932;2023-02-28T17:13:12;7.50;96.00
837;DHT22;400;53.550;9.932;2023-02-28T17:15:47;7.50;96.20
837;DHT22;400;53.550;9.932;2023-02-28T17:18:17;7.40;96.40
837;DHT22;400;53.550;9.932;2023-02-28T17:20:46;7.40;96.50
837;DHT22;400;53.550;9.932;2023-02-28T17:23:15;7.30;96.60
837;DHT22;400;53.550;9.932;2023-02-28T17:25:42;7.30;96.60
837;DHT22;400;53.550;9.932;2023-02-28T17:28:22;7.20;96.80
837;DHT22;400;53.550;9.932;2023-02-28T17:30:51;7.20;96.90
837;DHT22;400;53.550;9.932;2023-02-28T17:33:21;7.20;97.00
837;DHT22;400;53.550;9.932;2023-02-28T17:35:50;7.10;97.30
837;DHT22;400;53.550;9.932;2023-02-28T17:38:21;7.00;97.30
837;DHT22;400;53.550;9.932;2023-02-28T17:40:58;7.00;97.30
837;DHT22;400;53.550;9.932;2023-02-28T17:43:28;7.00;97.50
837;DHT22;400;53.550;9.932;2023-02-28T17:46:01;6.90;97.60
837;DHT22;400;53.550;9.932;2023-02-28T17:48:31;6.90;97.60
837;DHT22;400;53.550;9.932;2023-02-28T17:50:57;6.90;97.60
837;DHT22;400;53.550;9.932;2023-02-28T17:53:24;6.80;97.70
837;DHT22;400;53.550;9.932;2023-02-28T17:55:54;6.80;97.70